Time;durP1;ratioP1;P1;durP2;ratioP2;P2;SDS_P1;SDS_P2;PMS_P1;PMS_P2;Temp;Humidity;BMP_temperature;BMP_pressure;BME280_temperature;BME280_humidity;BME280_pressure;Samples;Min_cycle;Max_cycle;Signal;HPM_P1;HPM_P2
2023/04/04 00:02:11;;;;;;;35.92;18.15;;;;;;;7.14;90.63;99018.16;5073163;28;20033;-63
2023/04/04 00:04:37;;;;;;;35.22;18.70;;;;;;;7.15;90.58;99019.78;5073323;28;20516;-64
2023/04/04 00:07:03;;;;;;;39.78;19.85;;;;;;;7.22;90.26;99030.22;5072835;28;20413;-62
2023/04/04 00:09:29;;;;;;;38.60;18.83;;;;;;;7.29;89.83;99023.03;5072142;28;20072;-62
2023/04/04 00:11:55;;;;;;;37.65;18.65;;;;;;;7.25;89.59;99022.69;5071628;28;20131;-62
2023/04/04 00:14:21;;;;;;;33.03;17.95;;;;;;;7.38;89.11;99029.59;5072858;28;20132;-63
2023/04/04 00:16:46;;;;;;;35.38;18.80;;;;;;;7.35;88.66;99016.03;5072835;28;20048;-62
2023/04/04 00:19:17;;;;;;;41.83;18.25;;;;;;;7.38;88.95;99023.50;5073011;28;20044;-63
2023/04/04 00:21:44;;;;;;;41.42;18.42;;;;;;;7.32;88.88;99025.22;5073556;28;20054;-61
2023/04/04 00:24:11;;;;;;;36.65;19.67;;;;;;;7.31;89.44;99022.81;5072975;28;20068;-62
2023/04/04 00:26:37;;;;;;;37.22;19.05;;;;;;;7.38;89.23;99029.59;5072297;28;20048;-62
2023/04/04 00:29:03;;;;;;;39.55;18.05;;;;;;;7.41;88.44;99025.69;5072698;28;20476;-62
2023/04/04 00:31:28;;;;;;;41.58;17.80;;;;;;;7.39;88.90;99018.03;5071243;28;20036;-62
2023/04/04 00:33:54;;;;;;;39.50;18.40;;;;;;;7.31;89.11;99018.34;5054641;28;20075;-63
2023/04/04 00:36:20;;;;;;;33.92;17.27;;;;;;;7.31;88.88;99028.09;5071332;28;20187;-61
2023/04/04 00:38:46;;;;;;;40.08;17.25;;;;;;;7.30;88.90;99024.66;5072471;28;20080;-62
2023/04/04 00:41:12;;;;;;;33.03;16.05;;;;;;;7.28;89.18;99018.78;5071184;28;20060;-61
2023/04/04 00:43:38;;;;;;;34.70;16.42;;;;;;;7.23;89.09;99016.81;5071244;28;20040;-63
2023/04/04 00:46:04;;;;;;;43.45;19.33;;;;;;;7.17;89.60;99016.91;5072423;28;20490;-62
2023/04/04 00:48:30;;;;;;;36.08;16.83;;;;;;;7.22;89.55;99014.41;5053994;28;20206;-62
2023/04/04 00:50:56;;;;;;;29.70;15.23;;;;;;;7.26;88.77;99012.94;5070257;28;20040;-63
2023/04/04 00:53:22;;;;;;;32.20;16.40;;;;;;;7.23;89.10;99008.91;5053977;28;20040;-63
2023/04/04 00:55:48;;;;;;;34.42;15.98;;;;;;;7.19;88.88;99009.59;5072256;28;20049;-62
2023/04/04 00:58:14;;;;;;;37.00;16.83;;;;;;;7.14;89.41;99007.63;5054178;28;20048;-61
2023/04/04 01:00:40;;;;;;;29.90;15.50;;;;;;;7.19;89.07;99009.59;5054088;28;20101;-62
2023/04/04 01:03:06;;;;;;;32.03;15.25;;;;;;;7.18;89.22;99005.34;5070681;28;20049;-62
2023/04/04 01:05:32;;;;;;;32.35;16.13;;;;;;;7.06;89.11;99005.31;5072077;28;20127;-62
2023/04/04 01:07:58;;;;;;;39.92;17.40;;;;;;;7.04;89.71;99005.53;5070389;28;20182;-61
2023/04/04 01:10:24;;;;;;;34.42;16.50;;;;;;;6.99;90.21;99015.13;5070557;28;20131;-60
2023/04/04 01:12:50;;;;;;;32.58;16.42;;;;;;;7.02;89.60;99012.84;5070662;28;20036;-62
2023/04/04 01:15:16;;;;;;;35.50;17.52;;;;;;;7.10;89.21;99022.28;5053748;28;20037;-63
2023/04/04 01:17:43;;;;;;;35.50;17.13;;;;;;;7.08;89.17;99016.41;5071847;28;20040;-62
2023/04/04 01:20:13;;;;;;;39.63;16.83;;;;;;;7.07;89.36;99025.38;5070529;28;20044;-62
2023/04/04 01:22:45;;;;;;;47.03;17.27;;;;;;;7.03;89.23;99017.09;5054172;28;20036;-62
2023/04/04 01:25:11;;;;;;;34.25;15.93;;;;;;;7.09;89.61;99020.69;5019316;28;20053;-63
2023/04/04 01:27:40;;;;;;;38.22;18.10;;;;;;;7.13;89.51;99013.94;5053805;28;20063;-62
2023/04/04 01:30:13;;;;;;;43.83;16.88;;;;;;;7.20;88.74;99017.25;5070238;28;20052;-63
2023/04/04 01:32:52;;;;;;;39.47;16.10;;;;;;;7.17;88.61;99016.91;5070111;28;20041;-62
2023/04/04 01:35:55;;;;;;;35.15;16.63;;;;;;;7.10;88.99;99016.22;5071672;28;20517;-64
2023/04/04 01:38:24;;;;;;;33.60;15.80;;;;;;;7.18;88.93;99018.53;5069321;28;20394;-61
2023/04/04 01:40:54;;;;;;;41.42;17.15;;;;;;;7.19;88.31;99010.38;5070072;28;20056;-62
2023/04/04 01:43:21;;;;;;;37.03;17.27;;;;;;;7.19;88.52;99012.22;5053227;28;20464;-62
2023/04/04 01:45:48;;;;;;;35.25;16.48;;;;;;;7.10;89.16;99017.00;5069929;28;20138;-62
2023/04/04 01:48:15;;;;;;;37.60;16.40;;;;;;;7.08;88.65;99007.72;5070222;28;20048;-63
2023/04/04 01:50:44;;;;;;;34.43;16.30;;;;;;;7.14;89.04;99012.09;5070132;28;20123;-61
2023/04/04 01:53:10;;;;;;;30.33;16.25;;;;;;;7.16;88.72;99004.78;5069835;28;20282;-63
2023/04/04 01:55:36;;;;;;;35.03;15.40;;;;;;;7.05;88.50;99004.50;5069669;28;20055;-62
2023/04/04 01:58:02;;;;;;;35.83;16.48;;;;;;;7.13;89.12;99010.50;5036752;28;20108;-62
2023/04/04 02:00:29;;;;;;;35.92;16.25;;;;;;;7.09;89.10;99001.41;5070049;28;20518;-63
2023/04/04 02:02:55;;;;;;;32.50;15.07;;;;;;;7.07;89.21;99003.47;5070069;28;20089;-63
2023/04/04 02:05:21;;;;;;;31.83;15.77;;;;;;;7.05;89.14;98999.22;5071303;28;20049;-63
2023/04/04 02:07:48;;;;;;;32.63;16.00;;;;;;;7.04;88.70;99002.09;5069679;28;20052;-62
2023/04/04 02:10:23;;;;;;;33.30;15.93;;;;;;;7.01;88.98;99000.69;5069861;28;20059;-63
2023/04/04 02:12:52;;;;;;;33.28;15.65;;;;;;;6.92;88.75;98999.41;5036415;28;20041;-62
2023/04/04 02:15:19;;;;;;;35.28;16.73;;;;;;;6.84;89.70;99002.34;5053428;28;20072;-62
2023/04/04 02:17:47;;;;;;;36.75;17.40;;;;;;;6.86;89.82;98997.66;5069600;28;20075;-63
2023/04/04 02:20:13;;;;;;;30.48;14.85;;;;;;;6.87;89.51;99006.38;5052460;28;20406;-61
2023/04/04 02:22:38;;;;;;;33.35;16.80;;;;;;;6.93;89.61;99008.13;5069447;28;20036;-62
2023/04/04 02:25:05;;;;;;;36.92;17.13;;;;;;;6.91;89.47;99008.34;5070930;28;20040;-62
2023/04/04 02:27:31;;;;;;;33.28;16.40;;;;;;;6.88;89.00;99014.03;5069293;28;20139;-61
2023/04/04 02:29:57;;;;;;;33.88;16.83;;;;;;;6.94;88.91;99002.63;5070823;28;20187;-63
2023/04/04 02:32:23;;;;;;;35.85;17.23;;;;;;;6.94;88.79;99015.81;5069802;28;20395;-61
2023/04/04 02:34:50;;;;;;;36.42;18.42;;;;;;;6.98;88.92;99009.06;5069809;28;20051;-62
2023/04/04 02:37:16;;;;;;;33.58;16.15;;;;;;;6.99;88.75;99008.03;5069410;28;20033;-62
2023/04/04 02:39:43;;;;;;;32.58;15.70;;;;;;;6.95;89.07;99011.34;5070925;28;20044;-61
2023/04/04 02:42:09;;;;;;;33.20;16.02;;;;;;;7.03;88.53;99008.41;5052995;28;20048;-61
2023/04/04 02:44:34;;;;;;;33.22;16.40;;;;;;;7.01;88.66;99003.34;5069895;28;20050;-62
2023/04/04 02:47:01;;;;;;;33.88;16.33;;;;;;;7.04;88.84;99002.88;5052781;28;20048;-62
2023/04/04 02:49:29;;;;;;;34.25;16.30;;;;;;;7.07;88.20;98999.00;5069627;28;20080;-62
2023/04/04 02:51:56;;;;;;;31.48;15.77;;;;;;;7.10;88.08;99003.84;5073113;28;20498;-61
2023/04/04 02:54:23;;;;;;;33.42;16.33;;;;;;;7.09;88.32;98996.97;5072494;28;20050;-63
2023/04/04 02:56:49;;;;;;;31.52;16.48;;;;;;;7.02;87.85;98999.66;5073666;28;20040;-63
2023/04/04 02:59:15;;;;;;;34.05;16.63;;;;;;;6.98;88.65;99005.63;5073284;28;20397;-62
2023/04/04 03:01:41;;;;;;;31.50;15.75;;;;;;;6.96;88.07;98992.66;5073093;28;20060;-61
2023/04/04 03:04:07;;;;;;;33.38;17.08;;;;;;;6.91;88.78;98991.72;5072815;28;20043;-63
2023/04/04 03:06:34;;;;;;;29.55;15.93;;;;;;;6.94;88.32;98992.09;5072482;28;20056;-60
2023/04/04 03:09:01;;;;;;;32.03;15.50;;;;;;;6.94;88.32;98999.16;5022429;28;20063;-62
2023/04/04 03:11:27;;;;;;;29.05;16.27;;;;;;;6.97;88.21;98998.72;5072915;28;20044;-61
2023/04/04 03:13:54;;;;;;;30.88;15.93;;;;;;;6.97;88.10;98996.91;5074044;28;20068;-61
2023/04/04 03:16:29;;;;;;;30.92;16.48;;;;;;;6.96;88.68;99000.56;5057540;28;20044;-63
2023/04/04 03:18:55;;;;;;;33.38;16.25;;;;;;;6.95;87.86;98995.53;5072452;28;20036;-63
2023/04/04 03:21:21;;;;;;;31.80;16.80;;;;;;;6.85;87.67;98977.59;5074034;28;20048;-63
2023/04/04 03:23:47;;;;;;;32.53;16.17;;;;;;;6.97;88.38;98998.72;5055889;28;20070;-64
2023/04/04 03:26:12;;;;;;;38.40;17.48;;;;;;;6.95;87.67;98998.97;5072501;28;20045;-61
2023/04/04 03:28:38;;;;;;;37.63;17.50;;;;;;;7.02;87.97;99012.03;5074085;28;20059;-64
2023/04/04 03:31:05;;;;;;;29.92;15.60;;;;;;;7.03;87.37;99009.19;5073965;28;20065;-62
2023/04/04 03:33:37;;;;;;;29.80;15.55;;;;;;;7.02;87.38;99012.03;5072202;28;20051;-62
2023/04/04 03:36:09;;;;;;;30.13;16.58;;;;;;;7.05;87.20;99015.03;5072552;28;20127;-63
2023/04/04 03:38:36;;;;;;;33.33;17.25;;;;;;;7.08;87.38;99015.63;5073276;28;20083;-63
2023/04/04 03:41:02;;;;;;;34.78;17.08;;;;;;;7.04;87.36;99007.38;5055472;28;20072;-63
2023/04/04 03:43:30;;;;;;;32.08;16.70;;;;;;;7.02;86.86;99012.84;5071693;28;20537;-63
2023/04/04 03:46:00;;;;;;;30.80;15.65;;;;;;;7.01;87.07;99005.19;5072295;28;20044;-62
2023/04/04 03:48:27;;;;;;;34.30;17.13;;;;;;;7.03;87.12;99013.66;5071897;28;20103;-63
2023/04/04 03:50:52;;;;;;;29.80;14.55;;;;;;;7.04;87.23;99018.69;5073565;28;20044;-62
2023/04/04 03:53:18;;;;;;;31.42;15.25;;;;;;;6.95;87.42;99014.78;5054966;28;20417;-62
2023/04/04 03:55:45;;;;;;;24.48;14.00;;;;;;;6.97;87.65;99006.63;5072009;28;20482;-62
2023/04/04 03:58:12;;;;;;;26.65;14.70;;;;;;;6.95;87.59;99004.22;5071244;28;20410;-64
2023/04/04 04:00:38;;;;;;;23.50;13.90;;;;;;;7.02;86.96;99022.59;5071750;28;20036;-62
2023/04/04 04:03:03;;;;;;;27.52;15.02;;;;;;;7.03;87.02;99014.47;5071125;28;20040;-61
2023/04/04 04:05:29;;;;;;;30.38;16.35;;;;;;;7.06;86.89;99007.97;5072811;28;20059;-62
2023/04/04 04:07:55;;;;;;;26.80;15.00;;;;;;;7.04;86.65;99010.78;5072676;28;20041;-63
2023/04/04 04:10:21;;;;;;;25.98;15.32;;;;;;;7.03;87.02;99011.03;5071634;28;20105;-63
2023/04/04 04:12:47;;;;;;;31.52;15.07;;;;;;;6.97;87.05;99011.91;5072891;28;20086;-61
2023/04/04 04:15:13;;;;;;;29.85;15.65;;;;;;;7.02;87.18;99020.75;5071426;28;20522;-62
2023/04/04 04:17:41;;;;;;;27.25;16.15;;;;;;;7.04;86.86;99010.00;5055037;28;20048;-63
2023/04/04 04:20:08;;;;;;;28.58;15.75;;;;;;;7.11;86.70;99020.44;5072664;28;20048;-62
2023/04/04 04:22:45;;;;;;;25.95;14.75;;;;;;;7.14;87.04;99014.72;5055242;28;20036;-62
2023/04/04 04:25:10;;;;;;;28.40;15.27;;;;;;;7.25;86.79;99016.59;5050278;28;20041;-63
2023/04/04 04:27:38;;;;;;;28.17;15.65;;;;;;;7.36;86.15;99018.47;5034964;28;20045;-64
2023/04/04 04:30:05;;;;;;;25.73;14.18;;;;;;;7.38;86.08;99024.34;5051110;28;20053;-62
2023/04/04 04:32:35;;;;;;;25.27;14.32;;;;;;;7.39;85.17;99020.66;5054628;28;20489;-62
2023/04/04 04:35:02;;;;;;;28.45;15.38;;;;;;;7.39;85.70;99025.94;5072070;28;20051;-62
2023/04/04 04:37:32;;;;;;;29.30;15.23;;;;;;;7.42;85.45;99019.41;5071001;28;20045;-63
2023/04/04 04:39:59;;;;;;;28.25;14.70;;;;;;;7.49;84.54;99023.53;5070862;28;20117;-64
2023/04/04 04:42:54;;;;;;;27.08;14.10;;;;;;;7.48;84.77;99016.66;5076061;28;20052;-64
2023/04/04 04:45:21;;;;;;;24.08;15.23;;;;;;;7.58;84.81;99020.59;5070845;28;20082;-64
2023/04/04 04:47:53;;;;;;;25.60;13.85;;;;;;;7.53;84.59;99015.16;5071767;28;20513;-63
2023/04/04 04:50:20;;;;;;;25.52;15.00;;;;;;;7.54;84.53;99014.16;5070914;28;20062;-63
2023/04/04 04:52:51;;;;;;;26.48;14.65;;;;;;;7.57;84.47;99016.34;5070677;28;20068;-62
2023/04/04 04:55:17;;;;;;;27.58;15.25;;;;;;;7.61;84.27;99023.56;5070673;28;20045;-64
2023/04/04 04:57:49;;;;;;;27.02;15.18;;;;;;;7.62;84.66;99022.56;5070632;28;20130;-61
2023/04/04 05:00:20;;;;;;;25.65;14.48;;;;;;;7.68;84.41;99021.66;5054901;28;20044;-64
2023/04/04 05:02:47;;;;;;;28.55;14.88;;;;;;;7.84;83.90;99028.06;5053907;28;20044;-62
2023/04/04 05:05:16;;;;;;;24.52;14.77;;;;;;;7.97;82.78;99024.41;5070145;28;20048;-65
2023/04/04 05:07:46;;;;;;;22.70;14.10;;;;;;;8.01;82.97;99025.56;5070222;28;20051;-65
2023/04/04 05:10:12;;;;;;;21.80;13.30;;;;;;;8.06;82.10;99014.31;5070482;28;20044;-63
2023/04/04 05:12:43;;;;;;;24.30;14.00;;;;;;;8.09;82.59;99017.31;5053563;28;20085;-62
2023/04/04 05:15:12;;;;;;;22.65;13.25;;;;;;;8.28;82.00;99004.78;5038274;28;20116;-64
2023/04/04 05:17:41;;;;;;;22.15;13.38;;;;;;;8.16;80.56;99007.44;5053997;28;20071;-62
2023/04/04 05:20:08;;;;;;;24.48;13.52;;;;;;;8.21;81.26;99001.47;5052828;28;20048;-62
2023/04/04 05:22:36;;;;;;;22.27;13.88;;;;;;;8.48;81.30;99003.63;5069907;28;20127;-64
2023/04/04 05:25:02;;;;;;;19.67;12.70;;;;;;;8.48;80.59;98998.34;5053346;28;20070;-63
2023/04/04 05:27:28;;;;;;;21.25;13.57;;;;;;;8.50;79.83;98998.91;5069872;28;20101;-62
2023/04/04 05:29:58;;;;;;;21.55;12.77;;;;;;;8.50;80.26;98999.72;5069232;28;20053;-63
2023/04/04 05:32:30;;;;;;;21.20;13.07;;;;;;;8.24;81.17;98989.66;5069958;28;20048;-63
2023/04/04 05:35:05;;;;;;;22.92;13.70;;;;;;;8.39;80.86;98998.72;5053309;28;20140;-61
2023/04/04 05:37:37;;;;;;;24.50;13.35;;;;;;;8.48;80.31;98999.16;5070009;28;20490;-62
2023/04/04 05:40:04;;;;;;;23.90;13.57;;;;;;;8.56;80.62;98998.81;5071410;28;20098;-62
2023/04/04 05:42:31;;;;;;;21.25;13.25;;;;;;;8.63;80.33;98998.66;5071417;28;20894;-62
2023/04/04 05:44:58;;;;;;;25.35;14.00;;;;;;;8.82;80.84;99001.94;5070045;28;20078;-63
2023/04/04 05:47:28;;;;;;;20.63;12.40;;;;;;;8.99;78.38;98992.22;5069551;28;20055;-62
2023/04/04 05:49:54;;;;;;;21.45;12.48;;;;;;;8.82;78.41;98968.41;5066826;28;20044;-61
2023/04/04 05:52:20;;;;;;;22.52;12.75;;;;;;;9.00;78.22;98987.72;5070366;28;20128;-62
2023/04/04 05:54:47;;;;;;;17.15;11.95;;;;;;;9.08;77.80;98998.72;5067202;28;20044;-63
2023/04/04 05:57:21;;;;;;;18.42;11.60;;;;;;;9.18;77.65;99003.41;5050145;28;20162;-65
2023/04/04 05:59:52;;;;;;;19.60;12.48;;;;;;;9.14;77.50;98996.16;5052347;28;20049;-62
2023/04/04 06:02:18;;;;;;;21.17;12.57;;;;;;;9.15;76.60;99001.25;5050568;28;20421;-62
2023/04/04 06:04:49;;;;;;;19.02;11.63;;;;;;;9.22;76.49;98993.94;5053522;28;20048;-63
2023/04/04 06:07:20;;;;;;;18.98;11.70;;;;;;;9.41;76.17;98994.56;5051435;28;20064;-61
2023/04/04 06:09:47;;;;;;;19.05;12.02;;;;;;;9.54;75.21;99002.16;5067762;28;20298;-63
2023/04/04 06:12:13;;;;;;;19.35;12.68;;;;;;;9.56;75.72;98999.28;5067056;28;20044;-63
2023/04/04 06:14:39;;;;;;;19.17;11.40;;;;;;;9.58;75.20;99005.13;5066826;28;20080;-63
2023/04/04 06:17:06;;;;;;;19.25;12.40;;;;;;;9.63;74.71;98997.28;5066376;28;20068;-64
2023/04/04 06:19:33;;;;;;;18.30;12.13;;;;;;;9.77;73.86;98992.47;5034390;28;20127;-64
2023/04/04 06:21:59;;;;;;;20.88;11.68;;;;;;;9.89;73.77;98995.81;5068889;28;20041;-64
2023/04/04 06:41:31;;;;;;;14.50;10.60;;;;;;;10.28;70.18;99008.31;5074102;27;20937;-64
2023/04/04 06:43:57;;;;;;;15.18;11.27;;;;;;;10.24;70.99;99005.34;5065526;28;20048;-63
2023/04/04 06:46:25;;;;;;;16.30;10.75;;;;;;;10.14;70.56;99005.97;5048070;28;20049;-64
2023/04/04 06:48:51;;;;;;;16.10;10.52;;;;;;;10.09;71.51;99010.38;5044966;28;20038;-61
2023/04/04 06:51:17;;;;;;;16.77;11.27;;;;;;;10.12;70.89;99018.69;5027408;28;20048;-62
2023/04/04 06:53:44;;;;;;;17.40;11.63;;;;;;;10.30;70.84;99007.03;5043365;28;20510;-63
2023/04/04 06:56:10;;;;;;;17.08;11.25;;;;;;;10.23;71.21;98995.75;5042741;28;20037;-65
2023/04/04 06:58:38;;;;;;;12.88;9.32;;;;;;;10.20;70.61;99018.22;5028176;28;20049;-63
2023/04/04 07:01:04;;;;;;;14.13;10.25;;;;;;;10.19;70.93;99016.66;5046836;28;20131;-62
2023/04/04 07:03:30;;;;;;;13.38;9.15;;;;;;;10.29;70.24;99020.50;5044823;28;20088;-63
2023/04/04 07:05:56;;;;;;;15.45;10.32;;;;;;;10.52;69.71;99020.28;5066149;28;20217;-62
2023/04/04 07:08:22;;;;;;;13.10;9.90;;;;;;;10.61;69.68;99024.09;5066360;28;20043;-65
2023/04/04 07:10:48;;;;;;;13.38;9.77;;;;;;;10.69;68.39;99021.03;5065680;28;20052;-64
2023/04/04 07:13:13;;;;;;;14.57;9.73;;;;;;;10.72;68.04;99025.03;5065073;28;20072;-66
2023/04/04 07:15:39;;;;;;;15.57;9.63;;;;;;;10.86;67.76;99031.59;5064452;28;20040;-61
2023/04/04 07:18:05;;;;;;;13.27;8.80;;;;;;;10.88;67.00;99032.13;5066350;28;20075;-64
2023/04/04 07:20:31;;;;;;;12.13;8.63;;;;;;;11.01;66.47;99030.94;5066262;28;20048;-63
2023/04/04 07:22:56;;;;;;;12.38;9.30;;;;;;;11.17;66.52;99034.56;5064365;28;20041;-63
2023/04/04 07:25:22;;;;;;;12.68;9.20;;;;;;;11.21;66.26;99025.06;5066377;28;20447;-62
2023/04/04 07:27:48;;;;;;;12.35;9.50;;;;;;;11.32;65.67;99031.25;5065761;28;20513;-61
2023/04/04 07:30:14;;;;;;;11.73;8.73;;;;;;;11.34;65.12;99029.16;5047912;28;20049;-62
2023/04/04 07:32:40;;;;;;;12.30;9.13;;;;;;;11.40;65.33;99030.81;5064722;28;20190;-63
2023/04/04 07:35:06;;;;;;;11.95;8.18;;;;;;;11.52;64.69;99025.34;5067092;28;20517;-62
2023/04/04 07:37:35;;;;;;;13.57;8.85;;;;;;;11.58;63.29;99027.78;5067185;28;20413;-63
2023/04/04 07:40:01;;;;;;;11.52;8.02;;;;;;;11.61;63.57;99031.78;5072884;28;20609;-61
2023/04/04 07:42:29;;;;;;;10.23;7.75;;;;;;;11.61;62.42;99018.50;5071744;28;20032;-63
2023/04/04 07:44:55;;;;;;;10.40;7.57;;;;;;;11.70;62.37;99032.91;5070979;28;20041;-63
2023/04/04 07:47:21;;;;;;;11.02;8.00;;;;;;;11.77;62.82;99025.56;5071315;28;20040;-61
2023/04/04 07:49:47;;;;;;;11.63;8.18;;;;;;;11.81;62.05;99031.94;5072922;28;20401;-62
2023/04/04 07:52:12;;;;;;;9.68;7.75;;;;;;;11.87;62.51;99026.72;5072409;28;20410;-61
2023/04/04 07:54:39;;;;;;;12.55;8.02;;;;;;;11.98;62.66;99026.53;5072851;28;20036;-61
2023/04/04 07:57:05;;;;;;;10.15;7.50;;;;;;;12.00;62.63;99020.97;5072922;28;20044;-63
2023/04/04 07:59:31;;;;;;;11.45;7.93;;;;;;;12.12;61.68;99018.94;5070741;28;20510;-61
2023/04/04 08:01:57;;;;;;;9.38;7.80;;;;;;;12.11;61.60;99014.66;5071273;28;20079;-64
2023/04/04 08:04:44;;;;;;;10.40;7.95;;;;;;;12.30;60.75;99027.53;5067991;28;20068;-63
2023/04/04 08:07:30;;;;;;;10.45;7.55;;;;;;;12.41;60.63;99023.84;5017014;28;20528;-63
2023/04/04 08:09:57;;;;;;;10.30;7.75;;;;;;;12.43;60.61;99024.41;5033825;28;20057;-64
2023/04/04 08:12:23;;;;;;;8.93;7.38;;;;;;;12.50;60.55;99030.31;5050778;28;20045;-61
2023/04/04 08:14:52;;;;;;;11.25;7.97;;;;;;;12.50;60.37;99028.44;5033853;28;20045;-63
2023/04/04 08:17:19;;;;;;;10.35;7.03;;;;;;;12.55;58.68;99024.22;5033814;28;20418;-63
2023/04/04 08:19:45;;;;;;;10.45;8.45;;;;;;;12.59;59.01;99023.44;5051399;28;20037;-63
2023/04/04 08:22:11;;;;;;;9.45;7.55;;;;;;;12.58;58.96;99034.31;5052123;28;20032;-63
2023/04/04 08:24:39;;;;;;;11.48;8.13;;;;;;;12.48;59.32;99030.56;5050537;28;20052;-63
2023/04/04 08:27:05;;;;;;;11.63;8.60;;;;;;;12.80;59.27;99036.81;5050954;28;20041;-63
2023/04/04 08:29:31;;;;;;;9.73;7.50;;;;;;;13.07;58.03;99039.31;5063174;28;20076;-62
2023/04/04 08:31:57;;;;;;;11.02;7.75;;;;;;;13.07;57.85;99028.66;5064694;28;20481;-62
2023/04/04 08:34:23;;;;;;;12.57;8.43;;;;;;;13.24;56.88;99036.44;5049605;28;20056;-63
2023/04/04 08:36:49;;;;;;;11.93;8.68;;;;;;;13.17;57.36;99024.13;5032917;28;20554;-61
2023/04/04 08:39:14;;;;;;;12.27;8.68;;;;;;;13.27;58.05;99026.06;5047868;28;20053;-62
2023/04/04 08:41:42;;;;;;;11.38;9.23;;;;;;;13.49;57.90;99027.69;5063774;28;20088;-62
2023/04/04 08:44:10;;;;;;;15.43;9.77;;;;;;;13.39;57.30;99029.28;5049463;28;20045;-62
2023/04/04 08:46:37;;;;;;;11.20;8.07;;;;;;;13.06;58.90;99024.38;5080587;28;20334;-62
2023/04/04 08:49:03;;;;;;;11.57;8.50;;;;;;;13.06;59.58;99025.22;5014992;28;21936;-64
2023/04/04 08:51:30;;;;;;;10.15;7.63;;;;;;;12.86;59.96;99025.94;5049518;28;20036;-63
2023/04/04 08:53:56;;;;;;;13.13;8.48;;;;;;;12.88;59.94;99026.47;5047130;28;20418;-64
2023/04/04 08:56:22;;;;;;;12.15;8.48;;;;;;;12.86;59.80;99015.28;5033074;28;20171;-64
2023/04/04 08:58:48;;;;;;;12.95;8.15;;;;;;;13.22;58.46;99027.91;5048686;28;20033;-64
2023/04/04 09:01:15;;;;;;;9.80;7.80;;;;;;;13.38;57.85;99026.88;5049471;28;20480;-63
2023/04/04 09:03:41;;;;;;;10.68;7.70;;;;;;;13.55;56.99;99021.31;5048831;28;20032;-62
2023/04/04 09:06:07;;;;;;;10.45;8.20;;;;;;;13.70;57.10;99026.63;5048030;28;20053;-62
2023/04/04 09:08:34;;;;;;;9.90;7.68;;;;;;;13.79;57.16;99026.91;5049641;28;20047;-63
2023/04/04 09:11:01;;;;;;;9.02;7.30;;;;;;;13.77;53.81;99035.16;5050631;28;20056;-64
2023/04/04 09:13:27;;;;;;;10.95;7.90;;;;;;;13.84;56.32;99034.91;5049876;28;20037;-62
2023/04/04 09:15:54;;;;;;;15.60;9.63;;;;;;;13.89;56.58;99036.78;5050404;28;20055;-65
2023/04/04 09:18:19;;;;;;;13.10;8.52;;;;;;;13.87;55.83;99039.69;5049421;28;20041;-65
2023/04/04 09:20:46;;;;;;;11.60;7.45;;;;;;;14.01;53.42;99039.97;5046203;28;20059;-65
2023/04/04 09:23:17;;;;;;;11.80;8.98;;;;;;;14.09;55.67;99048.22;5046849;28;20032;-65
2023/04/04 09:25:49;;;;;;;13.48;9.20;;;;;;;14.26;55.42;99047.91;5062193;28;20539;-63
2023/04/04 09:28:16;;;;;;;12.38;8.35;;;;;;;14.39;54.40;99049.22;5069058;28;20127;-62
2023/04/04 09:30:45;;;;;;;11.80;7.85;;;;;;;14.38;53.52;99038.81;5068089;28;20044;-62
2023/04/04 09:33:12;;;;;;;11.95;7.97;;;;;;;14.40;53.65;99042.00;5048044;28;20212;-63
2023/04/04 09:35:40;;;;;;;12.95;8.13;;;;;;;14.41;53.16;99036.44;5045987;28;20040;-63
2023/04/04 09:38:06;;;;;;;10.98;7.88;;;;;;;14.48;52.09;99041.47;5047334;28;20229;-62
2023/04/04 09:40:35;;;;;;;10.50;7.63;;;;;;;14.48;52.44;99050.25;5028359;28;20094;-61
2023/04/04 09:43:02;;;;;;;11.07;7.13;;;;;;;14.56;52.35;99046.28;5047395;28;20044;-61
2023/04/04 09:45:31;;;;;;;12.13;8.15;;;;;;;14.49;52.11;99040.38;5048078;28;20106;-62
2023/04/04 09:47:57;;;;;;;13.63;8.07;;;;;;;14.34;53.34;99043.09;5047233;28;20097;-61
2023/04/04 09:50:24;;;;;;;11.02;8.23;;;;;;;14.13;54.11;99053.78;5043674;28;20150;-62
2023/04/04 09:52:51;;;;;;;9.07;7.65;;;;;;;13.88;53.71;99046.59;5048800;28;20120;-62
2023/04/04 09:55:17;;;;;;;9.27;7.20;;;;;;;13.95;54.16;99049.81;5049350;28;20084;-63
2023/04/04 09:57:45;;;;;;;11.27;7.88;;;;;;;14.26;53.53;99053.22;5047892;28;20229;-66
2023/04/04 10:00:12;;;;;;;15.35;9.55;;;;;;;14.51;54.97;99052.41;5047549;28;20511;-63
2023/04/04 10:02:40;;;;;;;11.18;9.02;;;;;;;14.53;54.31;99046.81;5047372;28;20037;-65
2023/04/04 10:05:09;;;;;;;16.30;9.18;;;;;;;14.59;54.55;99045.72;5047744;28;20494;-62
2023/04/04 10:07:38;;;;;;;10.73;7.97;;;;;;;14.51;54.14;99049.75;5032138;28;20132;-65
2023/04/04 10:10:07;;;;;;;12.98;8.85;;;;;;;14.63;54.31;99049.44;5048560;28;20057;-64
2023/04/04 10:12:35;;;;;;;13.00;8.75;;;;;;;14.68;54.27;99057.44;5049603;28;20037;-64
2023/04/04 10:15:02;;;;;;;16.65;8.98;;;;;;;14.89;53.79;99052.03;4999129;28;20048;-65
2023/04/04 10:17:39;;;;;;;13.65;8.35;;;;;;;14.99;53.54;99051.97;5047644;28;20335;-63
2023/04/04 10:20:07;;;;;;;14.23;8.65;;;;;;;14.98;53.79;99053.03;5031285;28;20167;-64
2023/04/04 10:22:35;;;;;;;17.45;9.32;;;;;;;14.91;53.47;99049.84;5047525;28;20041;-64
2023/04/04 10:25:02;;;;;;;15.05;8.70;;;;;;;15.03;53.15;99049.53;5048284;28;20045;-66
2023/04/04 10:27:28;;;;;;;12.30;8.65;;;;;;;15.07;52.50;99056.75;5046561;28;20505;-63
2023/04/04 10:29:56;;;;;;;15.02;9.00;;;;;;;15.05;52.59;99055.41;5030559;28;20533;-65
2023/04/04 10:32:40;;;;;;;15.90;9.57;;;;;;;15.09;52.10;99056.44;5055325;28;20071;-66
2023/04/04 10:35:09;;;;;;;16.58;8.95;;;;;;;14.86;53.06;99055.25;5049258;28;20048;-66
2023/04/04 10:38:07;;;;;;;16.25;9.13;;;;;;;14.82;54.03;99064.84;5067661;28;20045;-65
2023/04/04 10:40:38;;;;;;;13.55;9.07;;;;;;;14.95;53.33;99054.38;5065991;28;20254;-65
2023/04/04 10:43:06;;;;;;;10.98;8.60;;;;;;;14.94;53.00;99057.31;5068009;28;20083;-65
2023/04/04 10:45:37;;;;;;;15.63;8.68;;;;;;;14.80;51.88;99065.13;5049381;28;20147;-67
2023/04/04 10:48:03;;;;;;;14.50;8.80;;;;;;;14.63;51.71;99060.13;5066971;28;20094;-65
2023/04/04 10:50:33;;;;;;;12.52;8.13;;;;;;;14.46;52.06;99060.38;5049027;28;20066;-62
2023/04/04 10:53:00;;;;;;;15.30;8.82;;;;;;;14.64;52.70;99058.25;5018668;28;20291;-64
2023/04/04 10:55:27;;;;;;;17.40;9.25;;;;;;;14.79;52.62;99063.53;5065652;28;20037;-65
2023/04/04 10:57:54;;;;;;;12.00;8.30;;;;;;;15.01;52.26;99059.72;5067470;28;20072;-66
2023/04/04 11:00:25;;;;;;;11.15;8.68;;;;;;;15.13;51.98;99066.31;5049744;28;20079;-64
2023/04/04 11:02:58;;;;;;;20.88;9.45;;;;;;;14.96;52.62;99060.53;5064436;28;20045;-65
2023/04/04 11:05:50;;;;;;;15.02;8.02;;;;;;;14.98;52.89;99059.19;5067828;28;20045;-65
2023/04/04 11:08:24;;;;;;;13.32;9.20;;;;;;;14.76;53.19;99062.22;5068115;28;20036;-65
2023/04/04 11:10:54;;;;;;;14.48;8.93;;;;;;;14.62;53.95;99057.72;5065295;28;20049;-64
2023/04/04 11:13:32;;;;;;;13.02;8.65;;;;;;;14.72;53.04;99063.81;5066431;28;20063;-64
2023/04/04 11:16:02;;;;;;;16.38;8.98;;;;;;;14.76;52.89;99061.41;5066405;28;20045;-63
2023/04/04 11:18:31;;;;;;;15.85;9.13;;;;;;;14.82;52.02;99060.31;5069757;28;20072;-65
2023/04/04 11:21:00;;;;;;;15.27;8.75;;;;;;;14.93;51.52;99058.41;5069811;28;20059;-64
2023/04/04 11:23:27;;;;;;;13.20;8.85;;;;;;;14.94;51.27;99051.97;5071605;28;20545;-64
2023/04/04 11:25:54;;;;;;;18.67;9.52;;;;;;;14.99;51.16;99051.97;5066845;28;20044;-64
2023/04/04 11:28:32;;;;;;;14.23;8.90;;;;;;;14.86;51.98;99058.69;5067730;28;20067;-68
2023/04/04 11:31:17;;;;;;;14.90;9.02;;;;;;;14.68;53.37;99065.44;5070753;28;20041;-68
2023/04/04 11:34:06;;;;;;;14.68;9.13;;;;;;;14.44;53.29;99053.72;5052178;28;20051;-64
2023/04/04 11:36:38;;;;;;;13.88;9.73;;;;;;;14.49;53.95;99057.19;5070437;28;20136;-65
2023/04/04 11:39:27;;;;;;;14.18;9.70;;;;;;;14.52;53.96;99059.34;5067853;28;20502;-67
2023/04/04 11:42:12;;;;;;;13.65;9.57;;;;;;;14.54;53.43;99064.41;5069358;28;20135;-65
2023/04/04 11:44:53;;;;;;;15.52;9.68;;;;;;;14.69;53.09;99060.91;5068473;28;20511;-65
2023/04/04 11:47:22;;;;;;;15.25;10.30;;;;;;;14.69;52.50;99059.03;5069468;28;20060;-65